EmailTwitter


Observations de surface / Québec / LFMK

Régions: Québec | Canada | États-Unis | Europe | France | UK | Ailleurs
Station
Affichage
Infos & localisation pour LFMK | Aide pour décoder les METARs

Observations prises le 2017-09-26 à 16H00 UTC à CARCASSONNE/SALV, FR (LFMK)

Température: 22.0 Celsius

Point de rosée: 9.0 Celsius

Humidité relative: 43%

Vents: Nord-ouest à 15 km/h ou 8 noeuds.

Pression au niveau moyen de la mer: 102.10 kilopascals.

Observation METAR:

LFMK 261600Z AUTO 30008KT 250V320 CAVOK 22/09 Q1021 NOSIG=